Pagrindinis puslapis
METAR-TAF:

METAR-TAF

Oro uostai :

Belo Horizontė, Minas Žeraisas, Brazilija

platuma: 19-54-33S, ilguma: 043-59-21W, Aukštis: 928 m

Dabartinis oras

Ataskaita buvo paskelbta 32 minutes, ne 10:00 UTC
Vėjas 8 kt iš Rytų
Temperatūra 20°C
Drėgmė 83%
Slėgis 1019 hPa
Matomumas 10 km arba daugiau
Mažai debesys ne aukštis 1500 ft
Su prošvaistėmis ne aukštis 8000 ft

METAR: SBPR 091000Z 10008KT 9999 FEW015 BKN080 20/17 Q1019

Laikas: 07:32 (10:32 UTC)


TAF: trūkstamas

Orai ataskaitas ir orų prognozės (METAR, TAF).

turimą stotys yra geltonos ir raudonos taškus žemėlapyje.

Perkelti pele per norėdami pamatyti stoties vardą.

Tada spustelėkite, norėdami matyti oro stebėjimo ir prognozės.

Norėdami pakeisti žemėlapį: spustelėkite ant žalios mygtukų su juodo kryžiaus žemyn,; žalią mygtuką su brūkšneliu, jei norite nutolinti; arba žalių rodyklių gretimoms žemėlapius.


METAR-TAF: